createdAt,value
2019-02-15T00:00:42.197Z,71.20
2019-02-15T00:03:11.656Z,74.37
2019-02-15T00:05:41.147Z,74.30
2019-02-15T00:08:10.639Z,65.67
2019-02-15T00:10:40.104Z,72.40
2019-02-15T00:13:13.557Z,73.53
2019-02-15T00:15:41.368Z,70.40
2019-02-15T00:18:12.464Z,69.40
2019-02-15T00:20:58.693Z,71.10
2019-02-15T00:23:28.145Z,71.90
2019-02-15T00:25:57.597Z,71.90
2019-02-15T00:28:27.234Z,70.83
2019-02-15T00:30:56.685Z,71.23
2019-02-15T00:33:26.132Z,79.00
2019-02-15T00:35:55.625Z,72.40
2019-02-15T00:38:25.092Z,77.23
2019-02-15T00:40:54.548Z,71.53
2019-02-15T00:43:24.027Z,64.03
2019-02-15T00:46:11.345Z,75.60
2019-02-15T00:48:40.991Z,71.50
2019-02-15T00:51:12.324Z,66.00
2019-02-15T00:53:49.308Z,71.63
2019-02-15T00:56:26.354Z,68.90
2019-02-15T00:58:57.832Z,77.10
2019-02-15T01:01:31.654Z,55.17
2019-02-15T01:04:05.326Z,66.33
2019-02-15T01:06:36.402Z,71.60
2019-02-15T01:09:09.197Z,70.83
2019-02-15T01:11:40.343Z,69.10
2019-02-15T01:14:09.799Z,66.77
2019-02-15T01:16:39.257Z,72.00
2019-02-15T01:19:08.755Z,68.77
2019-02-15T01:21:38.216Z,67.80
2019-02-15T01:24:07.660Z,51.00
2019-02-15T01:26:41.923Z,52.00
2019-02-15T01:29:31.151Z,63.53
2019-02-15T01:32:11.254Z,64.17
2019-02-15T01:34:58.829Z,65.20
2019-02-15T01:37:32.673Z,60.33
2019-02-15T01:40:06.665Z,61.40
2019-02-15T01:42:43.652Z,60.10
2019-02-15T01:45:17.455Z,60.13
2019-02-15T01:47:46.919Z,56.53
2019-02-15T01:50:16.397Z,60.57
2019-02-15T01:52:47.752Z,54.07
2019-02-15T01:55:17.200Z,63.57
2019-02-15T01:57:46.504Z,61.43
2019-02-15T02:00:17.960Z,75.67
2019-02-15T02:02:47.493Z,62.23
2019-02-15T02:05:16.983Z,49.80
2019-02-15T02:07:46.435Z,53.40
2019-02-15T02:10:15.881Z,47.63
2019-02-15T02:12:45.469Z,51.90
2019-02-15T02:15:14.996Z,38.80
2019-02-15T02:17:44.452Z,52.80
2019-02-15T02:20:14.282Z,35.83
2019-02-15T02:22:43.744Z,40.77
2019-02-15T02:25:13.199Z,57.07
2019-02-15T02:27:42.686Z,47.20
2019-02-15T02:30:12.226Z,47.77
2019-02-15T02:32:41.670Z,33.77
2019-02-15T02:35:11.177Z,43.80
2019-02-15T02:37:40.615Z,57.57
2019-02-15T02:40:10.146Z,51.23
2019-02-15T02:42:39.644Z,52.30
2019-02-15T02:45:09.381Z,60.13
2019-02-15T02:47:38.836Z,32.63
2019-02-15T02:50:08.899Z,33.80
2019-02-15T02:52:38.358Z,31.97
2019-02-15T02:55:08.115Z,47.50
2019-02-15T02:57:37.599Z,57.07
2019-02-15T03:00:07.729Z,38.67
2019-02-15T03:02:37.175Z,31.20
2019-02-15T03:05:06.800Z,49.33
2019-02-15T03:07:36.239Z,28.93
2019-02-15T03:10:07.604Z,31.87
2019-02-15T03:12:37.069Z,26.43
2019-02-15T03:15:07.622Z,42.30
2019-02-15T03:17:37.073Z,68.83
2019-02-15T03:20:08.004Z,51.53
2019-02-15T03:22:37.452Z,47.90
2019-02-15T03:25:07.041Z,36.53
2019-02-15T03:27:36.540Z,37.87
2019-02-15T03:30:09.544Z,35.20
2019-02-15T03:32:38.974Z,50.77
2019-02-15T03:35:10.415Z,48.57
2019-02-15T03:37:41.495Z,45.07
2019-02-15T03:40:12.666Z,44.60
2019-02-15T03:42:42.147Z,56.87
2019-02-15T03:45:11.840Z,45.00
2019-02-15T03:47:41.291Z,45.43
2019-02-15T03:50:10.781Z,47.27
2019-02-15T03:52:40.231Z,49.03
2019-02-15T03:55:09.743Z,58.93
2019-02-15T03:57:39.244Z,52.07
2019-02-15T04:00:13.462Z,62.63
2019-02-15T04:02:42.901Z,57.47
2019-02-15T04:05:12.562Z,55.47
2019-02-15T04:07:42.019Z,56.90
2019-02-15T04:10:11.542Z,51.47
2019-02-15T04:12:41.040Z,49.67
2019-02-15T04:15:10.503Z,48.60
2019-02-15T04:17:39.983Z,55.27
2019-02-15T04:20:10.304Z,47.40
2019-02-15T04:22:39.754Z,56.03
2019-02-15T04:25:09.468Z,52.37
2019-02-15T04:27:38.929Z,40.50
2019-02-15T04:30:11.693Z,33.80
2019-02-15T04:32:41.146Z,50.80
2019-02-15T04:35:10.851Z,50.70
2019-02-15T04:37:40.309Z,45.53
2019-02-15T04:40:10.835Z,49.00
2019-02-15T04:42:40.355Z,47.90
2019-02-15T04:45:10.167Z,65.27
2019-02-15T04:47:39.627Z,46.93
2019-02-15T04:50:10.574Z,32.43
2019-02-15T04:52:40.024Z,59.60
2019-02-15T04:55:09.462Z,61.43
2019-02-15T04:57:38.955Z,53.50
2019-02-15T05:00:09.898Z,59.77
2019-02-15T05:02:39.359Z,60.87
2019-02-15T05:05:09.096Z,61.27
2019-02-15T05:07:38.549Z,58.33
2019-02-15T05:10:08.017Z,59.00
2019-02-15T05:12:37.481Z,48.57
2019-02-15T05:15:08.752Z,57.73
2019-02-15T05:17:38.212Z,49.53
2019-02-15T05:20:08.797Z,57.33
2019-02-15T05:22:38.245Z,58.00
2019-02-15T05:25:07.850Z,66.43
2019-02-15T05:27:37.378Z,53.73
2019-02-15T05:30:08.679Z,65.13
2019-02-15T05:32:38.122Z,85.67
2019-02-15T05:35:07.668Z,89.97
2019-02-15T05:37:37.145Z,90.13
2019-02-15T05:40:07.580Z,75.80
2019-02-15T05:42:37.059Z,76.60
2019-02-15T05:45:07.072Z,80.10
2019-02-15T05:47:36.517Z,82.23
2019-02-15T05:50:07.320Z,87.00
2019-02-15T05:52:36.771Z,82.00
2019-02-15T05:55:25.621Z,85.27
2019-02-15T05:57:55.063Z,82.77
2019-02-15T06:00:24.515Z,43.60
2019-02-15T06:02:53.992Z,55.43
2019-02-15T06:05:23.480Z,44.43
2019-02-15T06:07:52.948Z,43.40
2019-02-15T06:10:22.417Z,126.87
2019-02-15T06:12:51.884Z,254.87
2019-02-15T06:15:21.345Z,232.80
2019-02-15T06:17:50.844Z,101.93
2019-02-15T06:20:20.302Z,69.90
2019-02-15T06:22:49.755Z,52.10
2019-02-15T06:25:19.261Z,56.87
2019-02-15T06:27:48.709Z,52.23
2019-02-15T06:30:18.166Z,59.10
2019-02-15T06:32:47.659Z,66.07
2019-02-15T06:35:17.118Z,67.30
2019-02-15T06:37:46.646Z,62.63
2019-02-15T06:40:16.140Z,58.00
2019-02-15T06:42:45.600Z,63.27
2019-02-15T06:45:24.033Z,60.07
2019-02-15T06:47:46.265Z,64.77
2019-02-15T06:50:15.732Z,51.57
2019-02-15T06:52:45.189Z,74.13
2019-02-15T06:55:14.660Z,53.97
2019-02-15T06:57:44.115Z,78.50
2019-02-15T07:00:18.395Z,48.17
2019-02-15T07:02:52.472Z,55.17
2019-02-15T07:05:28.128Z,42.90
2019-02-15T07:07:57.622Z,63.53
2019-02-15T07:10:27.086Z,44.80
2019-02-15T07:12:56.540Z,39.53
2019-02-15T07:15:33.480Z,41.33
2019-02-15T07:17:57.193Z,41.60
2019-02-15T07:20:26.649Z,45.17
2019-02-15T07:22:56.126Z,41.20
2019-02-15T07:25:25.578Z,43.93
2019-02-15T07:27:55.031Z,38.77
2019-02-15T07:30:24.530Z,36.57
2019-02-15T07:32:53.974Z,41.33
2019-02-15T07:35:23.429Z,46.00
2019-02-15T07:37:52.926Z,62.33
2019-02-15T07:40:22.383Z,41.13
2019-02-15T07:42:51.918Z,59.60
2019-02-15T07:45:22.721Z,65.50
2019-02-15T07:47:52.295Z,57.23
2019-02-15T07:50:21.791Z,69.67
2019-02-15T07:52:51.231Z,50.77
2019-02-15T07:55:20.725Z,44.13
2019-02-15T07:57:50.191Z,63.27
2019-02-15T08:00:19.714Z,62.37
2019-02-15T08:02:49.170Z,59.23
2019-02-15T08:05:18.626Z,52.17
2019-02-15T08:07:48.103Z,49.47
2019-02-15T08:10:17.552Z,43.93
2019-02-15T08:12:47.031Z,41.00
2019-02-15T08:15:16.480Z,36.57
2019-02-15T08:17:45.973Z,30.13
2019-02-15T08:20:15.447Z,32.43
2019-02-15T08:22:44.912Z,36.43
2019-02-15T08:25:14.385Z,33.60
2019-02-15T08:27:43.948Z,31.93
2019-02-15T08:30:13.450Z,31.50
2019-02-15T08:32:42.930Z,26.07
2019-02-15T08:35:12.415Z,26.73
2019-02-15T08:37:41.891Z,28.00
2019-02-15T08:40:12.143Z,24.40
2019-02-15T08:42:41.596Z,23.50
2019-02-15T08:45:13.247Z,24.70
2019-02-15T08:47:42.749Z,29.60
2019-02-15T08:50:13.037Z,29.63
2019-02-15T08:52:42.500Z,25.27
2019-02-15T08:55:12.999Z,29.07
2019-02-15T08:57:42.485Z,27.90
2019-02-15T09:00:13.749Z,26.90
2019-02-15T09:02:43.275Z,27.33
2019-02-15T09:05:13.614Z,26.73
2019-02-15T09:07:43.064Z,26.87
2019-02-15T09:10:14.044Z,25.90
2019-02-15T09:12:43.523Z,26.30
2019-02-15T09:15:20.211Z,26.17
2019-02-15T09:17:49.729Z,24.50
2019-02-15T09:20:19.361Z,26.67
2019-02-15T09:22:48.802Z,26.93
2019-02-15T09:25:18.285Z,30.83
2019-02-15T09:27:49.371Z,25.93
2019-02-15T09:30:18.824Z,22.83
2019-02-15T09:32:48.308Z,19.03
2019-02-15T09:35:18.326Z,20.90
2019-02-15T09:37:47.786Z,20.80
2019-02-15T09:40:17.267Z,23.60
2019-02-15T09:42:46.714Z,24.20
2019-02-15T09:45:16.162Z,21.43
2019-02-15T09:47:45.634Z,21.40
2019-02-15T09:50:15.086Z,24.13
2019-02-15T09:52:44.527Z,23.40
2019-02-15T09:55:14.021Z,20.40
2019-02-15T09:57:43.478Z,20.87
2019-02-15T10:00:12.999Z,23.67
2019-02-15T10:02:42.521Z,20.17
2019-02-15T10:05:11.945Z,22.27
2019-02-15T10:07:41.394Z,20.77
2019-02-15T10:10:11.348Z,20.93
2019-02-15T10:12:40.858Z,22.67
2019-02-15T10:15:12.014Z,18.30
2019-02-15T10:17:41.494Z,19.73
2019-02-15T10:20:10.939Z,19.67
2019-02-15T10:22:40.375Z,17.63
2019-02-15T10:25:11.075Z,21.83
2019-02-15T10:27:40.562Z,17.20
2019-02-15T10:30:12.769Z,18.10
2019-02-15T10:32:42.248Z,21.90
2019-02-15T10:35:12.175Z,19.03
2019-02-15T10:37:41.630Z,19.77
2019-02-15T10:40:12.318Z,19.90
2019-02-15T10:42:41.766Z,23.77
2019-02-15T10:45:16.058Z,22.10
2019-02-15T10:47:45.540Z,19.20
2019-02-15T10:50:15.268Z,22.90
2019-02-15T10:52:44.716Z,16.93
2019-02-15T10:55:14.291Z,24.90
2019-02-15T10:57:43.779Z,18.63
2019-02-15T11:00:19.255Z,21.93
2019-02-15T11:02:48.715Z,16.83
2019-02-15T11:05:18.914Z,19.40
2019-02-15T11:07:48.402Z,19.67
2019-02-15T11:10:17.931Z,20.13
2019-02-15T11:12:47.391Z,18.70
2019-02-15T11:15:18.055Z,19.23
2019-02-15T11:17:47.490Z,19.30
2019-02-15T11:20:18.786Z,22.83
2019-02-15T11:22:48.278Z,20.63
2019-02-15T11:25:17.773Z,18.30
2019-02-15T11:27:47.289Z,20.57
2019-02-15T11:30:17.729Z,20.90
2019-02-15T11:32:47.197Z,18.80
2019-02-15T11:35:16.639Z,20.63
2019-02-15T11:37:46.142Z,20.80
2019-02-15T11:40:16.228Z,16.37
2019-02-15T11:42:45.686Z,24.37
2019-02-15T11:45:16.021Z,20.03
2019-02-15T11:47:45.481Z,14.80
2019-02-15T11:50:15.963Z,19.07
2019-02-15T11:52:45.452Z,19.07
2019-02-15T11:55:14.938Z,19.10
2019-02-15T11:57:44.449Z,16.97
2019-02-15T12:00:24.518Z,21.77
2019-02-15T12:02:53.978Z,18.23
2019-02-15T12:05:23.435Z,23.67
2019-02-15T12:07:52.936Z,19.43
2019-02-15T12:10:22.388Z,20.17
2019-02-15T12:12:52.012Z,20.80
2019-02-15T12:15:21.509Z,16.33
2019-02-15T12:17:50.957Z,16.93
2019-02-15T12:20:20.410Z,17.40
2019-02-15T12:22:49.902Z,22.17
2019-02-15T12:25:19.354Z,21.00
2019-02-15T12:27:48.818Z,16.50
2019-02-15T12:30:18.618Z,24.97
2019-02-15T12:32:48.114Z,18.63
2019-02-15T12:35:17.539Z,20.50
2019-02-15T12:37:47.126Z,15.43
2019-02-15T12:40:16.609Z,14.23
2019-02-15T12:42:46.066Z,11.90
2019-02-15T12:45:16.682Z,18.10
2019-02-15T12:47:49.559Z,17.27
2019-02-15T12:50:20.935Z,18.27
2019-02-15T12:52:50.412Z,18.90
2019-02-15T12:55:22.817Z,24.57
2019-02-15T12:57:52.282Z,19.10
2019-02-15T13:00:21.768Z,20.53
2019-02-15T13:02:51.222Z,19.87
2019-02-15T13:05:20.677Z,15.70
2019-02-15T13:07:50.164Z,21.43
2019-02-15T13:10:21.266Z,16.37
2019-02-15T13:12:50.729Z,13.57
2019-02-15T13:15:20.278Z,18.30
2019-02-15T13:17:51.603Z,16.10
2019-02-15T13:20:21.265Z,15.67
2019-02-15T13:22:51.182Z,16.23
2019-02-15T13:25:20.824Z,15.90
2019-02-15T13:27:50.343Z,14.67
2019-02-15T13:30:19.845Z,15.27
2019-02-15T13:32:49.335Z,13.60
2019-02-15T13:35:24.679Z,14.13
2019-02-15T13:37:54.170Z,15.20
2019-02-15T13:40:23.636Z,14.80
2019-02-15T13:42:53.081Z,13.67
2019-02-15T13:45:22.630Z,13.73
2019-02-15T13:47:52.077Z,14.50
2019-02-15T13:50:21.529Z,14.10
2019-02-15T13:52:51.007Z,14.90
2019-02-15T13:55:20.465Z,14.30
2019-02-15T13:57:49.908Z,13.27
2019-02-15T14:00:19.457Z,14.13
2019-02-15T14:02:48.923Z,14.33
2019-02-15T14:05:18.398Z,13.37
2019-02-15T14:07:48.065Z,13.57
2019-02-15T14:10:17.495Z,16.80
2019-02-15T14:12:46.990Z,15.73
2019-02-15T14:15:16.481Z,13.10
2019-02-15T14:17:48.328Z,14.40
2019-02-15T14:20:17.118Z,15.17
2019-02-15T14:22:46.621Z,16.47
2019-02-15T14:25:16.082Z,18.13
2019-02-15T14:27:45.528Z,16.33
2019-02-15T14:30:15.648Z,14.27
2019-02-15T14:32:45.103Z,13.83
2019-02-15T14:35:16.115Z,18.30
2019-02-15T14:37:45.584Z,17.57
2019-02-15T14:40:15.422Z,15.70
2019-02-15T14:42:44.959Z,14.60
2019-02-15T14:45:15.185Z,11.10
2019-02-15T14:47:54.029Z,13.60
2019-02-15T14:50:16.059Z,15.50
2019-02-15T14:52:45.569Z,14.77
2019-02-15T14:55:14.990Z,18.00
2019-02-15T14:57:44.441Z,13.37
2019-02-15T15:00:15.441Z,13.17
2019-02-15T15:02:44.909Z,11.67
2019-02-15T15:05:14.912Z,13.07
2019-02-15T15:07:44.474Z,13.27
2019-02-15T15:10:14.107Z,17.63
2019-02-15T15:12:43.625Z,13.93
2019-02-15T15:15:17.078Z,14.23
2019-02-15T15:17:46.536Z,14.53
2019-02-15T15:20:15.998Z,14.70
2019-02-15T15:22:45.502Z,13.17
2019-02-15T15:25:16.113Z,16.30
2019-02-15T15:27:45.576Z,15.20
2019-02-15T15:30:18.071Z,15.83
2019-02-15T15:32:47.541Z,15.27
2019-02-15T15:35:16.988Z,14.20
2019-02-15T15:37:46.477Z,15.43
2019-02-15T15:40:17.843Z,14.10
2019-02-15T15:42:47.299Z,15.50
2019-02-15T15:45:16.878Z,17.27
2019-02-15T15:47:46.341Z,15.77
2019-02-15T15:50:15.864Z,15.00
2019-02-15T15:52:45.351Z,20.87
2019-02-15T15:55:15.176Z,21.70
2019-02-15T15:57:44.633Z,20.80
2019-02-15T16:00:15.824Z,16.90
2019-02-15T16:02:45.289Z,21.73
2019-02-15T16:05:14.757Z,19.90
2019-02-15T16:07:44.217Z,20.40
2019-02-15T16:10:15.357Z,23.40
2019-02-15T16:12:44.814Z,21.10
2019-02-15T16:15:14.911Z,19.40
2019-02-15T16:17:44.385Z,24.57
2019-02-15T16:20:14.853Z,24.33
2019-02-15T16:22:44.332Z,23.03
2019-02-15T16:25:13.791Z,23.70
2019-02-15T16:27:43.688Z,24.33
2019-02-15T16:30:17.039Z,31.03
2019-02-15T16:32:46.490Z,25.63
2019-02-15T16:35:15.996Z,26.13
2019-02-15T16:37:45.542Z,49.53
2019-02-15T16:40:16.362Z,87.80
2019-02-15T16:42:45.991Z,61.40
2019-02-15T16:45:16.626Z,58.73
2019-02-15T16:47:46.246Z,45.93
2019-02-15T16:50:15.726Z,32.00
2019-02-15T16:52:45.201Z,33.20
2019-02-15T16:55:14.664Z,37.13
2019-02-15T16:57:44.151Z,23.87
2019-02-15T17:00:14.926Z,30.53
2019-02-15T17:02:44.363Z,16.23
2019-02-15T17:05:14.182Z,14.50
2019-02-15T17:07:43.733Z,35.67
2019-02-15T17:10:13.435Z,16.63
2019-02-15T17:12:42.937Z,39.90
2019-02-15T17:15:15.994Z,22.10
2019-02-15T17:17:45.488Z,27.20
2019-02-15T17:20:15.030Z,24.20
2019-02-15T17:22:44.480Z,21.87
2019-02-15T17:25:13.975Z,33.40
2019-02-15T17:27:43.479Z,23.07
2019-02-15T17:30:13.252Z,23.10
2019-02-15T17:32:42.744Z,26.20
2019-02-15T17:35:12.767Z,38.47
2019-02-15T17:37:42.233Z,35.77
2019-02-15T17:40:18.708Z,34.07
2019-02-15T17:42:48.157Z,41.80
2019-02-15T17:45:17.623Z,42.07
2019-02-15T17:47:47.105Z,40.73
2019-02-15T17:50:16.561Z,50.43
2019-02-15T17:52:46.021Z,39.37
2019-02-15T17:55:15.842Z,43.03
2019-02-15T17:57:45.291Z,42.47
2019-02-15T18:00:18.794Z,44.00
2019-02-15T18:02:48.295Z,53.20
2019-02-15T18:05:17.750Z,44.47
2019-02-15T18:07:49.907Z,42.50
2019-02-15T18:10:19.440Z,23.57
2019-02-15T18:12:48.888Z,51.30
2019-02-15T18:15:18.415Z,63.17
2019-02-15T18:17:47.924Z,78.40
2019-02-15T18:20:17.393Z,84.83
2019-02-15T18:22:46.839Z,87.87
2019-02-15T18:25:16.319Z,87.03
2019-02-15T18:27:45.832Z,85.53
2019-02-15T18:30:17.192Z,83.23
2019-02-15T18:32:46.674Z,49.00
2019-02-15T18:35:16.127Z,75.97
2019-02-15T18:37:45.580Z,84.97
2019-02-15T18:40:15.074Z,89.13
2019-02-15T18:42:44.533Z,83.20
2019-02-15T18:45:18.459Z,51.20
2019-02-15T18:47:48.178Z,57.17
2019-02-15T18:50:17.761Z,92.63
2019-02-15T18:52:47.210Z,85.40
2019-02-15T18:55:16.714Z,91.20
2019-02-15T18:57:46.156Z,39.00
2019-02-15T19:00:18.742Z,79.07
2019-02-15T19:02:51.125Z,91.07
2019-02-15T19:05:20.587Z,79.03
2019-02-15T19:07:50.064Z,55.33
2019-02-15T19:10:24.497Z,91.50
2019-02-15T19:12:54.000Z,89.20
2019-02-15T19:15:23.481Z,57.60
2019-02-15T19:17:52.931Z,85.13
2019-02-15T19:20:22.392Z,78.40
2019-02-15T19:22:51.889Z,90.83
2019-02-15T19:25:22.015Z,84.57
2019-02-15T19:27:51.489Z,82.30
2019-02-15T19:30:28.552Z,68.60
2019-02-15T19:32:58.048Z,78.07
2019-02-15T19:35:27.514Z,80.57
2019-02-15T19:37:56.997Z,77.33
2019-02-15T19:40:26.449Z,83.03
2019-02-15T19:43:00.568Z,93.17
2019-02-15T19:45:30.018Z,189.13
2019-02-15T19:47:59.477Z,145.00
2019-02-15T19:50:28.957Z,135.67
2019-02-15T19:52:59.642Z,110.70
2019-02-15T19:55:34.132Z,104.37
2019-02-15T19:58:03.634Z,135.50
2019-02-15T20:00:35.585Z,125.40
2019-02-15T20:03:05.373Z,140.67
2019-02-15T20:05:34.861Z,123.70
2019-02-15T20:08:04.317Z,100.23
2019-02-15T20:10:35.993Z,151.00
2019-02-15T20:13:09.797Z,162.13
2019-02-15T20:15:39.250Z,144.40
2019-02-15T20:18:08.725Z,115.40
2019-02-15T20:20:38.210Z,114.63
2019-02-15T20:23:07.699Z,78.53
2019-02-15T20:25:37.144Z,96.27
2019-02-15T20:28:13.781Z,79.00
2019-02-15T20:30:37.840Z,73.03
2019-02-15T20:33:07.290Z,76.20
2019-02-15T20:35:36.788Z,81.17
2019-02-15T20:38:06.251Z,75.63
2019-02-15T20:40:37.249Z,82.63
2019-02-15T20:43:06.729Z,90.13
2019-02-15T20:45:36.191Z,86.90
2019-02-15T20:48:11.229Z,95.80
2019-02-15T20:50:36.957Z,95.70
2019-02-15T20:53:06.426Z,107.27
2019-02-15T20:55:39.274Z,103.17
2019-02-15T20:58:08.734Z,103.87
2019-02-15T21:00:38.237Z,98.90
2019-02-15T21:03:07.720Z,89.50
2019-02-15T21:05:37.143Z,89.30
2019-02-15T21:08:06.651Z,92.77
2019-02-15T21:10:36.112Z,59.93
2019-02-15T21:13:05.644Z,51.23
2019-02-15T21:15:35.097Z,87.13
2019-02-15T21:18:04.601Z,88.13
2019-02-15T21:20:34.053Z,95.63
2019-02-15T21:23:03.502Z,92.97
2019-02-15T21:25:32.990Z,97.27
2019-02-15T21:28:02.450Z,99.07
2019-02-15T21:30:32.011Z,123.73
2019-02-15T21:33:01.500Z,147.80
2019-02-15T21:35:30.965Z,136.57
2019-02-15T21:38:01.547Z,131.30
2019-02-15T21:40:31.186Z,115.17
2019-02-15T21:43:00.689Z,121.10
2019-02-15T21:45:30.251Z,118.40
2019-02-15T21:47:59.718Z,116.57
2019-02-15T21:50:29.213Z,116.20
2019-02-15T21:52:58.664Z,126.10
2019-02-15T21:55:28.140Z,119.27
2019-02-15T21:58:01.525Z,127.70
2019-02-15T22:00:29.139Z,122.20
2019-02-15T22:02:58.623Z,123.53
2019-02-15T22:05:28.077Z,58.67
2019-02-15T22:07:57.642Z,60.70
2019-02-15T22:10:27.099Z,80.60
2019-02-15T22:12:56.601Z,56.57
2019-02-15T22:15:26.076Z,65.87
2019-02-15T22:17:55.538Z,113.60
2019-02-15T22:20:26.973Z,97.50
2019-02-15T22:22:56.250Z,82.43
2019-02-15T22:25:25.694Z,101.97
2019-02-15T22:27:55.141Z,94.83
2019-02-15T22:30:24.611Z,90.27
2019-02-15T22:32:54.076Z,105.20
2019-02-15T22:35:23.579Z,100.03
2019-02-15T22:37:53.093Z,103.67
2019-02-15T22:40:40.263Z,99.90
2019-02-15T22:43:14.258Z,111.43
2019-02-15T22:45:43.730Z,111.03
2019-02-15T22:48:13.193Z,116.13
2019-02-15T22:50:42.815Z,111.90
2019-02-15T22:53:12.277Z,101.37
2019-02-15T22:55:41.731Z,108.80
2019-02-15T22:58:11.211Z,97.87
2019-02-15T23:01:03.610Z,67.70
2019-02-15T23:03:33.057Z,59.57
2019-02-15T23:06:02.551Z,86.23
2019-02-15T23:08:32.030Z,70.63
2019-02-15T23:11:01.515Z,90.33
2019-02-15T23:13:31.073Z,68.97
2019-02-15T23:16:00.530Z,69.83
2019-02-15T23:18:30.021Z,96.87
2019-02-15T23:20:59.479Z,66.00
2019-02-15T23:23:28.975Z,91.63
2019-02-15T23:25:58.435Z,133.03
2019-02-15T23:28:27.916Z,106.97
2019-02-15T23:30:57.395Z,87.60
2019-02-15T23:33:26.894Z,84.80
2019-02-15T23:35:56.361Z,148.20
2019-02-15T23:38:25.871Z,148.10
2019-02-15T23:40:55.316Z,109.50
2019-02-15T23:43:24.785Z,78.13
2019-02-15T23:45:54.283Z,119.30
2019-02-15T23:48:23.792Z,131.10
2019-02-15T23:50:55.192Z,171.10
2019-02-15T23:53:24.439Z,160.47
2019-02-15T23:55:53.938Z,111.83
2019-02-15T23:58:23.416Z,85.53
